Time;durP1;ratioP1;P1;durP2;ratioP2;P2;SDS_P1;SDS_P2;PMS_P1;PMS_P2;Temp;Humidity;BMP_temperature;BMP_pressure;BME280_temperature;BME280_humidity;BME280_pressure;Samples;Min_cycle;Max_cycle;Signal;HPM_P1;HPM_P2
2022/04/20 00:02:24;;;;;;;4.18;3.00;;;8.20;90.40;;;;;;2138859;67;20291;-75
2022/04/20 00:05:12;;;;;;;5.28;3.10;;;8.20;90.30;;;;;;2153259;66;20195;-75
2022/04/20 00:07:53;;;;;;;3.53;2.53;;;8.20;90.20;;;;;;2139391;67;20298;-74
2022/04/20 00:10:36;;;;;;;4.70;2.63;;;8.20;90.50;;;;;;2136879;67;20246;-75
2022/04/20 00:13:19;;;;;;;5.25;2.72;;;8.20;90.20;;;;;;2120591;67;20181;-75
2022/04/20 00:16:02;;;;;;;4.75;2.85;;;8.40;90.30;;;;;;2121910;67;20177;-75
2022/04/20 00:18:47;;;;;;;;;;;8.30;90.20;;;;;;2120173;67;20287;-74
2022/04/20 00:21:29;;;;;;;4.97;2.88;;;8.20;90.00;;;;;;2118542;67;20208;-74
2022/04/20 00:24:11;;;;;;;4.65;3.38;;;8.10;89.60;;;;;;2125678;67;20210;-75
2022/04/20 00:26:53;;;;;;;4.60;2.63;;;8.10;90.00;;;;;;2124098;67;20294;-74
2022/04/20 00:29:35;;;;;;;3.83;3.28;;;8.10;90.10;;;;;;2138363;67;20186;-75
2022/04/20 00:32:18;;;;;;;3.88;3.17;;;8.10;90.40;;;;;;2147054;66;20370;-75
2022/04/20 00:34:59;;;;;;;4.82;3.17;;;8.10;90.40;;;;;;2145247;66;20332;-75
2022/04/20 00:37:41;;;;;;;8.65;3.33;;;8.00;90.40;;;;;;2127338;67;20227;-76
2022/04/20 00:40:24;;;;;;;4.70;2.95;;;8.00;90.60;;;;;;2150612;66;20376;-75
2022/04/20 00:43:06;;;;;;;5.10;3.08;;;8.00;90.70;;;;;;2147410;66;20288;-74
2022/04/20 00:45:50;;;;;;;4.43;2.70;;;8.00;90.80;;;;;;2154176;66;20199;-75
2022/04/20 00:48:38;;;;;;;5.07;3.75;;;8.00;90.80;;;;;;2140085;66;20711;-75
2022/04/20 00:51:20;;;;;;;3.97;2.67;;;7.90;90.90;;;;;;2129378;67;20242;-75
2022/04/20 00:54:03;;;;;;;4.43;2.75;;;7.90;91.00;;;;;;2127289;67;20712;-75
2022/04/20 00:56:47;;;;;;;4.90;3.22;;;7.90;91.20;;;;;;2117988;67;20862;-75
2022/04/20 00:59:36;;;;;;;5.75;3.25;;;7.80;91.20;;;;;;2125374;67;20248;-74
2022/04/20 01:02:21;;;;;;;5.68;2.88;;;7.80;91.30;;;;;;2132167;67;20234;-75
2022/04/20 01:05:03;;;;;;;3.70;2.85;;;7.80;91.40;;;;;;2118752;67;20354;-76
2022/04/20 01:07:47;;;;;;;5.82;3.40;;;7.80;91.40;;;;;;2125560;67;20832;-73
2022/04/20 01:10:30;;;;;;;5.03;2.60;;;7.70;91.60;;;;;;2141700;66;20235;-75
2022/04/20 01:13:12;;;;;;;3.90;2.78;;;7.70;92.00;;;;;;2146768;66;20238;-75
2022/04/20 01:15:54;;;;;;;6.72;3.15;;;7.70;92.10;;;;;;2147952;66;20671;-75
2022/04/20 01:18:43;;;;;;;3.92;2.75;;;7.70;92.20;;;;;;2152262;66;20506;-75
2022/04/20 01:21:25;;;;;;;4.30;2.90;;;7.70;92.30;;;;;;2155823;66;20669;-74
2022/04/20 01:24:08;;;;;;;3.72;2.53;;;7.70;92.40;;;;;;2152825;66;20732;-75
2022/04/20 01:26:51;;;;;;;3.75;2.80;;;7.60;92.50;;;;;;2127385;67;20320;-75
2022/04/20 01:29:35;;;;;;;6.53;3.10;;;7.60;92.70;;;;;;2139110;66;20208;-75
2022/04/20 01:32:17;;;;;;;4.10;3.20;;;7.50;92.80;;;;;;2141505;66;20721;-74
2022/04/20 01:35:00;;;;;;;4.00;3.20;;;7.50;92.90;;;;;;2128850;67;20227;-75
2022/04/20 01:38:08;;;;;;;6.30;3.35;;;7.50;93.10;;;;;;2139259;66;20343;-75
2022/04/20 01:40:52;;;;;;;5.00;3.40;;;7.50;93.20;;;;;;2127992;67;20184;-75
2022/04/20 01:43:34;;;;;;;5.75;2.92;;;7.50;93.20;;;;;;2126505;67;20368;-73
2022/04/20 01:46:16;;;;;;;5.40;3.20;;;7.40;93.40;;;;;;2132394;67;20230;-73
2022/04/20 01:48:59;;;;;;;4.13;3.20;;;7.40;93.70;;;;;;2129971;67;20198;-73
2022/04/20 01:51:47;;;;;;;4.53;3.15;;;7.30;94.00;;;;;;2132299;67;20370;-73
2022/04/20 01:54:32;;;;;;;4.13;2.95;;;7.40;94.30;;;;;;2118220;67;20265;-74
2022/04/20 01:57:14;;;;;;;5.25;3.70;;;7.30;94.40;;;;;;2110902;67;20588;-74
2022/04/20 01:59:58;;;;;;;5.57;3.67;;;7.30;94.50;;;;;;2106107;67;20270;-74
2022/04/20 02:02:41;;;;;;;5.30;3.58;;;7.30;94.70;;;;;;2107933;67;20254;-74
2022/04/20 02:05:23;;;;;;;5.30;3.42;;;7.30;94.80;;;;;;2114252;67;20334;-74
2022/04/20 02:08:05;;;;;;;4.63;3.47;;;7.30;95.10;;;;;;2106097;67;20256;-74
2022/04/20 02:10:49;;;;;;;4.57;3.42;;;7.20;94.90;;;;;;2121610;67;20233;-74
2022/04/20 02:13:33;;;;;;;4.53;3.30;;;7.20;95.00;;;;;;2135471;67;20819;-75
2022/04/20 02:16:15;;;;;;;7.13;3.25;;;7.30;95.20;;;;;;2132022;67;20321;-74
2022/04/20 02:18:57;;;;;;;4.63;3.50;;;7.20;95.30;;;;;;2135153;67;20356;-74
2022/04/20 02:21:40;;;;;;;4.43;3.17;;;7.10;95.60;;;;;;2133868;67;20824;-74
2022/04/20 02:24:24;;;;;;;5.13;3.30;;;7.10;95.60;;;;;;2139115;67;20345;-74
2022/04/20 02:27:13;;;;;;;6.43;3.75;;;7.10;95.70;;;;;;2139483;66;20282;-74
2022/04/20 02:29:57;;;;;;;4.90;3.47;;;7.10;95.80;;;;;;2139453;67;20270;-75
2022/04/20 02:32:41;;;;;;;4.35;3.22;;;7.10;95.90;;;;;;2133465;67;20786;-75
2022/04/20 02:35:27;;;;;;;7.28;3.78;;;7.10;96.10;;;;;;2134542;67;20438;-74
2022/04/20 02:38:11;;;;;;;4.88;3.70;;;7.10;96.30;;;;;;2124291;67;20283;-75
2022/04/20 02:40:53;;;;;;;6.68;3.33;;;7.00;96.20;;;;;;2119131;67;20259;-75
2022/04/20 02:43:35;;;;;;;3.83;3.35;;;7.10;96.20;;;;;;2115221;67;20257;-74
2022/04/20 02:46:18;;;;;;;10.25;4.30;;;7.10;96.30;;;;;;2117128;67;20261;-74
2022/04/20 02:49:03;;;;;;;5.40;3.42;;;7.00;96.60;;;;;;2110917;67;20196;-75
2022/04/20 02:51:45;;;;;;;7.60;3.40;;;6.90;96.60;;;;;;2108226;67;20436;-74
2022/04/20 02:54:27;;;;;;;4.93;3.30;;;7.00;96.80;;;;;;2117808;67;20189;-74
2022/04/20 02:57:09;;;;;;;5.38;3.85;;;6.90;97.00;;;;;;2105184;67;20707;-75
2022/04/20 02:59:51;;;;;;;4.35;3.70;;;6.90;97.00;;;;;;2111496;67;20736;-74
2022/04/20 03:02:33;;;;;;;4.78;3.50;;;6.80;97.20;;;;;;2120576;67;20251;-76
2022/04/20 03:05:21;;;;;;;6.28;3.95;;;6.80;97.40;;;;;;2109197;67;20178;-74
2022/04/20 03:08:04;;;;;;;5.40;3.38;;;6.80;97.50;;;;;;2141585;66;20380;-74
2022/04/20 03:10:46;;;;;;;5.30;4.18;;;6.70;97.70;;;;;;2126093;67;20437;-75
2022/04/20 03:13:29;;;;;;;5.03;3.78;;;6.70;97.90;;;;;;2129227;67;20193;-74
2022/04/20 03:16:11;;;;;;;5.07;3.80;;;6.70;98.00;;;;;;2122788;67;20264;-73
2022/04/20 03:18:53;;;;;;;4.80;3.58;;;7.20;98.20;;;;;;2118857;67;20277;-74
2022/04/20 03:21:38;;;;;;;6.75;3.50;;;6.70;98.30;;;;;;2106394;67;20178;-74
2022/04/20 03:24:20;;;;;;;4.72;3.92;;;6.60;98.40;;;;;;2106325;67;20715;-75
2022/04/20 03:27:03;;;;;;;4.40;3.53;;;6.60;98.60;;;;;;2106698;67;20319;-74
2022/04/20 03:29:45;;;;;;;7.22;4.20;;;6.60;98.80;;;;;;2113606;67;20412;-74
2022/04/20 03:32:27;;;;;;;5.93;3.65;;;6.60;98.90;;;;;;2118938;67;20243;-74
2022/04/20 03:35:11;;;;;;;6.05;3.33;;;6.60;99.00;;;;;;2124690;67;20747;-74
2022/04/20 03:37:54;;;;;;;4.78;3.60;;;6.60;99.20;;;;;;2129446;67;20250;-74
2022/04/20 03:40:39;;;;;;;4.60;4.07;;;6.50;99.40;;;;;;2134100;67;20192;-75
2022/04/20 03:43:21;;;;;;;4.22;3.83;;;6.50;99.30;;;;;;2132169;67;20739;-75
2022/04/20 03:46:05;;;;;;;5.18;4.03;;;6.50;99.60;;;;;;2152291;66;20173;-75
2022/04/20 03:48:49;;;;;;;4.43;3.78;;;6.60;99.70;;;;;;2154534;66;20435;-75
2022/04/20 03:51:34;;;;;;;6.55;3.90;;;6.50;99.70;;;;;;2139658;66;20682;-75
2022/04/20 03:54:16;;;;;;;3.88;3.47;;;6.50;99.80;;;;;;2140646;67;20399;-75
2022/04/20 03:57:04;;;;;;;5.80;4.07;;;6.50;99.90;;;;;;2144390;66;20170;-74
2022/04/20 03:59:46;;;;;;;4.70;3.42;;;6.50;99.90;;;;;;2140922;66;20331;-74
2022/04/20 04:02:28;;;;;;;5.40;3.47;;;6.50;99.90;;;;;;2151291;66;20174;-74
2022/04/20 04:05:13;;;;;;;4.60;3.90;;;6.50;99.90;;;;;;2155072;66;20197;-74
2022/04/20 04:07:55;;;;;;;4.90;4.20;;;6.40;99.90;;;;;;2141637;66;20303;-74
2022/04/20 04:10:39;;;;;;;7.50;4.03;;;6.40;99.90;;;;;;2133296;67;20400;-75
2022/04/20 04:13:24;;;;;;;5.90;3.88;;;6.30;99.90;;;;;;2125773;67;20207;-75
2022/04/20 04:16:06;;;;;;;6.20;4.20;;;6.30;99.90;;;;;;2126446;67;20302;-74
2022/04/20 04:18:47;;;;;;;5.43;3.95;;;6.30;99.90;;;;;;2146520;66;20248;-75
2022/04/20 04:21:30;;;;;;;6.45;4.22;;;6.30;99.90;;;;;;2147419;66;20313;-75
2022/04/20 04:24:34;;;;;;;4.57;4.10;;;6.30;99.90;;;;;;2145085;66;20704;-74
2022/04/20 04:27:15;;;;;;;6.10;3.88;;;6.30;99.90;;;;;;2163409;66;20265;-74
2022/04/20 04:30:01;;;;;;;4.65;3.72;;;6.20;99.90;;;;;;2140387;66;20286;-73
2022/04/20 04:32:44;;;;;;;6.15;4.75;;;6.20;99.90;;;;;;2148806;66;20300;-74
2022/04/20 04:35:26;;;;;;;4.53;4.10;;;6.20;99.90;;;;;;2148368;66;20266;-76
2022/04/20 04:38:11;;;;;;;7.07;4.00;;;6.10;99.90;;;;;;2148868;66;20214;-74
2022/04/20 04:40:56;;;;;;;6.13;4.22;;;6.20;99.90;;;;;;2144982;66;20656;-74
2022/04/20 04:43:41;;;;;;;6.35;4.50;;;6.10;99.90;;;;;;2139681;67;20350;-74
2022/04/20 04:49:27;;;;;;;6.30;4.30;;;6.10;99.90;;;;;;2143083;66;20367;-74
2022/04/20 04:52:11;;;;;;;4.75;3.67;;;6.20;99.90;;;;;;2142297;66;20168;-76
2022/04/20 04:54:57;;;;;;;8.10;4.22;;;6.00;99.90;;;;;;2147809;66;20656;-75
2022/04/20 04:57:43;;;;;;;7.68;4.63;;;6.00;99.90;;;;;;2152827;66;20817;-75
2022/04/20 05:00:28;;;;;;;5.40;4.28;;;6.00;99.90;;;;;;2151362;66;20320;-75
2022/04/20 05:03:13;;;;;;;8.38;4.43;;;6.00;99.90;;;;;;2156131;66;20240;-76
2022/04/20 05:05:59;;;;;;;5.85;4.00;;;6.00;99.90;;;;;;2155071;66;20318;-74
2022/04/20 05:08:41;;;;;;;8.70;4.70;;;6.00;99.90;;;;;;2148872;66;20413;-75
2022/04/20 05:11:23;;;;;;;5.72;4.32;;;6.00;99.90;;;;;;2146219;66;20348;-75
2022/04/20 05:14:08;;;;;;;4.35;3.67;;;6.00;99.90;;;;;;2137136;67;20336;-74
2022/04/20 05:16:56;;;;;;;4.32;3.83;;;6.00;99.90;;;;;;2146079;66;20241;-75
2022/04/20 05:19:39;;;;;;;6.20;4.38;;;6.10;99.90;;;;;;2153864;66;20162;-75
2022/04/20 05:22:25;;;;;;;5.78;4.45;;;6.10;99.90;;;;;;2149613;66;20288;-75
2022/04/20 05:25:09;;;;;;;5.03;4.22;;;6.20;99.90;;;;;;2147525;66;20464;-75
2022/04/20 05:27:51;;;;;;;6.30;5.25;;;6.10;99.90;;;;;;2147719;66;20266;-75
2022/04/20 05:30:33;;;;;;;5.38;4.38;;;6.20;99.90;;;;;;2137543;67;20243;-75
2022/04/20 05:33:16;;;;;;;5.63;4.70;;;6.20;99.90;;;;;;2129506;66;20440;-74
2022/04/20 05:36:01;;;;;;;6.63;4.80;;;6.20;99.90;;;;;;2130599;67;20184;-75
2022/04/20 05:41:43;;;;;;;9.38;4.95;;;6.20;99.90;;;;;;2139018;67;20227;-74
2022/04/20 05:44:25;;;;;;;6.30;4.30;;;6.20;99.90;;;;;;2132833;67;20210;-75
2022/04/20 05:47:09;;;;;;;4.95;4.20;;;6.30;99.90;;;;;;2124143;67;20185;-75
2022/04/20 05:49:51;;;;;;;5.93;4.20;;;6.40;99.90;;;;;;2134844;67;20207;-75
2022/04/20 05:52:33;;;;;;;5.70;3.95;;;6.40;99.90;;;;;;2133179;67;20366;-75
2022/04/20 05:55:14;;;;;;;5.20;4.43;;;6.50;99.90;;;;;;2133552;66;20280;-73
2022/04/20 05:57:57;;;;;;;5.57;3.97;;;6.50;99.90;;;;;;2140925;66;20290;-74
2022/04/20 06:00:42;;;;;;;7.22;4.20;;;6.50;99.90;;;;;;2151470;66;20169;-74
2022/04/20 06:03:24;;;;;;;7.45;4.55;;;6.60;99.90;;;;;;2167176;65;20257;-75
2022/04/20 06:06:09;;;;;;;5.07;4.10;;;6.70;99.90;;;;;;2140957;66;20347;-74
2022/04/20 06:08:51;;;;;;;8.55;4.80;;;6.70;99.90;;;;;;2138040;66;20331;-75
2022/04/20 06:11:34;;;;;;;6.40;4.22;;;6.80;99.90;;;;;;2149302;66;20305;-75
2022/04/20 06:14:20;;;;;;;5.88;4.43;;;6.80;99.90;;;;;;2131770;67;20205;-75
2022/04/20 06:17:06;;;;;;;11.55;4.95;;;6.90;99.90;;;;;;2134147;67;20607;-75
2022/04/20 06:19:52;;;;;;;6.15;4.50;;;7.00;99.90;;;;;;2141363;66;20713;-75
2022/04/20 06:22:36;;;;;;;10.00;4.50;;;7.10;99.90;;;;;;2150780;66;20405;-75
2022/04/20 06:25:18;;;;;;;7.57;4.82;;;7.20;99.90;;;;;;2132526;67;20179;-76
2022/04/20 06:28:02;;;;;;;6.60;4.35;;;7.20;99.90;;;;;;2125504;67;20164;-75
2022/04/20 06:30:47;;;;;;;6.68;4.55;;;7.30;99.90;;;;;;2126249;67;20302;-74
2022/04/20 06:33:29;;;;;;;7.28;4.47;;;7.40;99.90;;;;;;2115572;67;20272;-74
2022/04/20 06:36:11;;;;;;;5.20;4.15;;;7.50;99.90;;;;;;2115203;67;20256;-75
2022/04/20 06:38:53;;;;;;;6.20;4.10;;;7.60;99.90;;;;;;2107013;67;20338;-74
2022/04/20 06:41:36;;;;;;;7.45;4.55;;;7.60;99.90;;;;;;2117532;67;20265;-76
2022/04/20 06:44:21;;;;;;;5.68;4.15;;;7.70;99.90;;;;;;2127302;67;20319;-75
2022/04/20 06:47:04;;;;;;;5.97;4.10;;;7.80;99.90;;;;;;2127299;67;20732;-76
2022/04/20 06:49:46;;;;;;;6.10;3.83;;;7.90;99.90;;;;;;2127185;67;20244;-76
2022/04/20 06:58:33;;;;;;;7.00;3.97;;;8.20;99.80;;;;;;2124347;67;20176;-75
2022/04/20 07:01:15;;;;;;;4.63;3.95;;;8.30;99.60;;;;;;2118835;67;20598;-75
2022/04/20 07:03:58;;;;;;;6.03;4.38;;;8.70;99.60;;;;;;2119325;67;20275;-74
2022/04/20 07:06:42;;;;;;;;;;;8.40;99.20;;;;;;2127482;67;20326;-74
2022/04/20 07:09:24;;;;;;;7.57;4.13;;;8.50;99.30;;;;;;2125902;67;20049;-75
2022/04/20 07:12:07;;;;;;;6.32;4.15;;;8.50;99.10;;;;;;2113603;67;20537;-75
2022/04/20 07:14:49;;;;;;;7.43;4.25;;;8.60;99.10;;;;;;2115050;67;20311;-74
2022/04/20 07:17:32;;;;;;;5.65;4.43;;;8.60;99.20;;;;;;2108927;67;20251;-74
2022/04/20 07:20:19;;;;;;;5.38;4.45;;;8.70;99.10;;;;;;2109794;67;20304;-76
2022/04/20 07:23:02;;;;;;;6.53;4.35;;;8.80;99.10;;;;;;2111138;67;20684;-76
2022/04/20 07:25:47;;;;;;;;;;;8.90;99.10;;;;;;2118330;67;20252;-75
2022/04/20 07:28:29;;;;;;;6.85;4.63;;;8.90;98.60;;;;;;2119020;67;20075;-73
2022/04/20 07:31:13;;;;;;;5.18;4.00;;;9.00;98.50;;;;;;2126496;67;20339;-74
2022/04/20 07:33:58;;;;;;;3.75;3.35;;;9.10;97.80;;;;;;2140185;67;20298;-76
2022/04/20 07:36:44;;;;;;;4.47;3.63;;;9.10;97.40;;;;;;2126057;67;20168;-75
2022/04/20 07:39:26;;;;;;;4.88;3.85;;;9.20;96.80;;;;;;2124944;67;20259;-75
2022/04/20 07:42:09;;;;;;;10.82;4.00;;;9.30;96.50;;;;;;2120832;67;20330;-75
2022/04/20 07:44:57;;;;;;;5.28;3.65;;;9.40;96.10;;;;;;2124445;67;20342;-75
2022/04/20 07:47:41;;;;;;;6.38;4.05;;;9.50;95.70;;;;;;2117994;67;20379;-74
2022/04/20 07:50:24;;;;;;;4.43;3.30;;;9.60;95.30;;;;;;2116686;67;20353;-75
2022/04/20 07:53:07;;;;;;;5.32;3.70;;;9.70;94.80;;;;;;2118295;67;20276;-75
2022/04/20 07:55:50;;;;;;;4.32;2.85;;;9.70;94.10;;;;;;2133337;66;20213;-75
2022/04/20 07:58:32;;;;;;;5.07;2.75;;;9.90;93.30;;;;;;2138778;67;20222;-76
2022/04/20 08:01:14;;;;;;;4.97;3.15;;;10.00;92.50;;;;;;2132620;67;20262;-75
2022/04/20 08:03:58;;;;;;;3.75;3.03;;;10.10;91.70;;;;;;2124426;67;20485;-76
2022/04/20 08:06:42;;;;;;;3.63;2.70;;;10.10;90.90;;;;;;2118129;67;20459;-77
2022/04/20 08:09:27;;;;;;;2.88;2.50;;;10.20;90.20;;;;;;2116824;67;20772;-75
2022/04/20 08:12:12;;;;;;;5.82;2.40;;;10.30;88.80;;;;;;2102316;67;20275;-75
2022/04/20 08:14:55;;;;;;;3.75;2.33;;;10.40;86.50;;;;;;2109653;67;20405;-75
2022/04/20 08:17:37;;;;;;;2.47;1.92;;;10.50;85.40;;;;;;2110778;67;20560;-74
2022/04/20 08:20:24;;;;;;;3.80;2.75;;;10.60;83.30;;;;;;2117752;67;20177;-75
2022/04/20 08:23:09;;;;;;;2.70;2.00;;;10.70;81.00;;;;;;2124692;67;20260;-75
2022/04/20 08:25:52;;;;;;;3.22;2.20;;;10.80;80.00;;;;;;2125558;67;20471;-76
2022/04/20 08:28:34;;;;;;;2.45;1.92;;;10.90;78.40;;;;;;2120519;67;20729;-75
2022/04/20 08:31:17;;;;;;;2.58;2.00;;;11.00;76.70;;;;;;2125449;67;20357;-76
2022/04/20 08:34:01;;;;;;;2.20;1.98;;;11.00;74.70;;;;;;2139724;67;20320;-76
2022/04/20 08:36:47;;;;;;;2.67;1.92;;;11.00;73.00;;;;;;2148170;66;20658;-76
2022/04/20 08:39:29;;;;;;;2.92;2.00;;;11.10;72.90;;;;;;2156071;66;20283;-76
2022/04/20 08:42:12;;;;;;;2.47;1.77;;;11.20;71.60;;;;;;2155834;66;20388;-76
2022/04/20 08:45:01;;;;;;;2.50;1.85;;;11.40;70.20;;;;;;2155871;66;20230;-76
2022/04/20 08:47:49;;;;;;;1.55;1.40;;;11.50;69.10;;;;;;2147473;66;20488;-76
2022/04/20 08:50:32;;;;;;;2.75;1.40;;;11.50;67.40;;;;;;2143453;66;20206;-76
2022/04/20 08:53:17;;;;;;;1.98;1.38;;;11.60;67.20;;;;;;2133625;67;20216;-76
2022/04/20 08:59:03;;;;;;;1.92;1.58;;;11.80;64.90;;;;;;2149114;66;20387;-73
2022/04/20 09:01:55;;;;;;;4.90;1.95;;;11.80;63.70;;;;;;2155053;66;20194;-76
2022/04/20 09:04:40;;;;;;;1.90;1.67;;;11.90;63.00;;;;;;2162246;66;20337;-76
2022/04/20 09:07:25;;;;;;;2.75;1.77;;;11.90;62.60;;;;;;2167376;65;20176;-76
2022/04/20 09:10:09;;;;;;;3.25;1.80;;;12.00;62.10;;;;;;2162331;66;20310;-75
2022/04/20 09:13:07;;;;;;;2.67;1.67;;;12.20;62.40;;;;;;2162063;66;20205;-75
2022/04/20 09:15:54;;;;;;;1.80;1.70;;;12.20;61.00;;;;;;2131659;67;20196;-75
2022/04/20 09:18:44;;;;;;;4.70;2.15;;;12.30;62.10;;;;;;2129904;67;20180;-76
2022/04/20 09:21:34;;;;;;;2.30;1.70;;;12.30;61.60;;;;;;2118901;67;20314;-76
2022/04/20 09:24:20;;;;;;;2.13;1.52;;;12.40;61.10;;;;;;2122361;67;20205;-75
2022/04/20 09:27:03;;;;;;;3.20;1.70;;;12.60;60.30;;;;;;2138515;67;20175;-75
2022/04/20 09:29:52;;;;;;;2.97;1.70;;;12.60;59.80;;;;;;2128946;67;20224;-75
2022/04/20 09:32:57;;;;;;;2.95;1.83;;;12.80;58.30;;;;;;2135419;67;20174;-76
2022/04/20 09:35:59;;;;;;;5.05;1.80;;;12.80;57.00;;;;;;2139791;67;20179;-76
2022/04/20 09:39:04;;;;;;;2.15;1.90;;;12.90;59.40;;;;;;2132763;67;20296;-76
2022/04/20 09:42:02;;;;;;;2.10;1.85;;;13.10;58.90;;;;;;2125198;67;20734;-75
2022/04/20 09:45:00;;;;;;;3.30;1.60;;;13.20;58.50;;;;;;2130519;67;20369;-76
2022/04/20 09:50:51;;;;;;;4.03;1.95;;;13.40;57.60;;;;;;2132313;67;20201;-77
2022/04/20 09:53:33;;;;;;;;;;;13.50;57.70;;;;;;2124900;67;20233;-74
2022/04/20 09:56:22;;;;;;;2.35;1.75;;;13.60;58.10;;;;;;2132919;67;20107;-75
2022/04/20 09:59:06;;;;;;;2.60;1.40;;;13.70;57.20;;;;;;2138096;66;20241;-75
2022/04/20 10:01:51;;;;;;;2.60;1.60;;;13.80;57.10;;;;;;2132442;67;20543;-75
2022/04/20 10:04:35;;;;;;;2.53;1.80;;;13.80;56.50;;;;;;2127537;67;20764;-76
2022/04/20 10:07:20;;;;;;;4.10;1.95;;;13.80;56.40;;;;;;2126923;67;20288;-75
2022/04/20 10:10:04;;;;;;;3.35;1.50;;;13.90;56.00;;;;;;2132500;67;20192;-75
2022/04/20 10:12:51;;;;;;;2.58;1.83;;;14.00;56.50;;;;;;2122411;67;21046;-75
2022/04/20 10:18:41;;;;;;;2.25;1.80;;;14.20;56.10;;;;;;2117416;67;20344;-76
2022/04/20 10:21:28;;;;;;;2.35;1.67;;;14.30;55.70;;;;;;2127169;67;20530;-74
2022/04/20 10:24:18;;;;;;;2.15;1.75;;;14.40;55.40;;;;;;2142087;66;20206;-76
2022/04/20 10:27:08;;;;;;;2.30;1.58;;;14.40;55.00;;;;;;2130209;67;21004;-75
2022/04/20 10:30:03;;;;;;;2.42;1.60;;;14.50;54.70;;;;;;2120561;67;20202;-74
2022/04/20 10:33:09;;;;;;;2.83;1.50;;;14.60;54.60;;;;;;2122747;67;20303;-74
2022/04/20 10:35:59;;;;;;;1.95;1.55;;;14.70;53.90;;;;;;2125522;67;20342;-78
2022/04/20 10:38:42;;;;;;;2.40;1.30;;;14.80;54.50;;;;;;2124136;67;20392;-76
2022/04/20 10:41:24;;;;;;;4.57;1.25;;;15.00;53.70;;;;;;2121214;67;20259;-76
2022/04/20 10:44:07;;;;;;;1.42;0.90;;;15.20;52.90;;;;;;2133347;67;20346;-77
2022/04/20 10:47:22;;;;;;;1.88;1.30;;;15.40;52.40;;;;;;2112457;67;20253;-75
2022/04/20 10:50:12;;;;;;;3.90;1.30;;;16.10;52.00;;;;;;2122619;67;20439;-78
2022/04/20 10:55:41;;;;;;;1.95;1.55;;;17.40;50.70;;;;;;2132032;67;20487;-75
2022/04/20 10:58:23;;;;;;;2.85;1.50;;;18.00;50.20;;;;;;2129042;67;20164;-72
2022/04/20 11:01:11;;;;;;;2.95;1.20;;;18.50;48.50;;;;;;2127904;67;20231;-73
2022/04/20 11:03:58;;;;;;;1.77;1.42;;;18.80;47.60;;;;;;2119763;67;20180;-72
2022/04/20 11:07:15;;;;;;;2.33;1.20;;;19.20;45.30;;;;;;2131683;67;20367;-75
2022/04/20 11:10:05;;;;;;;2.53;1.15;;;19.90;46.00;;;;;;2120840;67;20717;-73
2022/04/20 11:19:09;;;;;;;3.08;1.45;;;21.20;44.20;;;;;;2104005;68;20227;-77
2022/04/20 11:22:05;;;;;;;2.25;1.20;;;21.80;42.80;;;;;;2086625;68;20233;-72
2022/04/20 11:24:48;;;;;;;1.45;1.13;;;22.20;42.40;;;;;;2096605;68;20307;-73
2022/04/20 11:27:35;;;;;;;2.38;1.20;;;22.60;41.60;;;;;;2109564;67;20286;-73
2022/04/20 11:30:20;;;;;;;1.55;1.05;;;23.30;40.80;;;;;;2119830;67;20343;-72
2022/04/20 11:33:07;;;;;;;1.85;1.35;;;24.10;39.60;;;;;;2136377;67;20238;-73
2022/04/20 11:35:58;;;;;;;1.92;1.10;;;24.90;39.00;;;;;;2151267;66;20255;-73
2022/04/20 11:38:41;;;;;;;1.13;0.90;;;25.70;38.50;;;;;;2144014;67;20358;-73
2022/04/20 11:41:23;;;;;;;1.17;1.05;;;26.50;37.70;;;;;;2134504;67;20399;-73
2022/04/20 11:44:22;;;;;;;1.13;1.02;;;27.10;36.40;;;;;;2120961;67;20285;-75
2022/04/20 11:47:08;;;;;;;1.58;1.30;;;27.70;36.50;;;;;;2113354;67;20219;-74
2022/04/20 11:49:50;;;;;;;1.70;0.95;;;28.30;35.20;;;;;;2130800;67;20198;-74
2022/04/20 11:52:32;;;;;;;1.48;0.77;;;28.70;34.40;;;;;;2123852;67;20180;-73
2022/04/20 11:55:14;;;;;;;1.05;0.95;;;28.90;33.40;;;;;;2141342;66;20802;-72
2022/04/20 11:58:31;;;;;;;2.17;1.20;;;29.10;33.30;;;;;;2136719;67;20190;-74
2022/04/20 12:01:15;;;;;;;1.38;0.82;;;29.70;33.80;;;;;;2110421;67;20307;-74
2022/04/20 12:04:04;;;;;;;0.90;0.85;;;30.20;32.80;;;;;;2102831;67;20232;-74
2022/04/20 12:06:57;;;;;;;2.58;1.38;;;30.60;32.30;;;;;;2104987;67;20306;-74
2022/04/20 12:09:47;;;;;;;3.33;1.30;;;30.80;31.80;;;;;;2086944;68;20291;-74
2022/04/20 12:12:32;;;;;;;1.55;1.08;;;30.60;31.50;;;;;;2103923;67;20253;-74
2022/04/20 12:15:14;;;;;;;2.47;1.17;;;30.60;31.10;;;;;;2111684;67;20181;-75
2022/04/20 12:17:57;;;;;;;2.58;1.70;;;30.80;30.90;;;;;;2105973;67;20444;-75
2022/04/20 12:20:49;;;;;;;2.55;1.38;;;31.10;31.10;;;;;;2111900;67;20214;-76
2022/04/20 12:23:37;;;;;;;2.47;1.20;;;31.20;30.40;;;;;;2101879;67;20195;-73
2022/04/20 12:26:29;;;;;;;1.45;1.00;;;31.10;30.20;;;;;;2099251;67;20331;-75
2022/04/20 12:29:15;;;;;;;1.90;1.27;;;31.10;31.00;;;;;;2111110;67;20356;-73
2022/04/20 12:32:00;;;;;;;2.35;0.80;;;31.30;30.60;;;;;;2115117;67;20590;-75
2022/04/20 12:34:54;;;;;;;1.38;1.23;;;31.90;30.00;;;;;;2141116;67;20207;-72
2022/04/20 12:37:41;;;;;;;1.52;1.13;;;32.40;30.00;;;;;;2137705;67;20242;-73
2022/04/20 12:40:26;;;;;;;2.67;0.93;;;32.80;29.40;;;;;;2155110;66;20277;-75
2022/04/20 12:43:14;;;;;;;2.47;1.17;;;32.90;29.20;;;;;;2150453;66;20205;-76
2022/04/20 12:46:15;;;;;;;1.75;1.08;;;33.20;29.50;;;;;;2148411;66;20254;-74
2022/04/20 12:49:00;;;;;;;1.80;1.30;;;33.60;29.70;;;;;;2151410;66;20258;-75
2022/04/20 12:51:41;;;;;;;3.15;1.52;;;33.90;29.00;;;;;;2150143;66;20221;-76
2022/04/20 12:54:25;;;;;;;6.60;2.08;;;34.40;29.00;;;;;;2148297;66;20328;-75
2022/04/20 13:03:30;;;;;;;2.60;1.48;;;35.70;28.50;;;;;;2146063;66;20346;-74
2022/04/20 13:06:13;;;;;;;2.38;1.38;;;35.30;28.30;;;;;;2134626;67;20272;-74
2022/04/20 13:08:55;;;;;;;1.58;1.45;;;35.20;28.20;;;;;;2132477;67;20415;-77
2022/04/20 13:11:38;;;;;;;3.15;1.77;;;35.20;28.60;;;;;;2144157;66;20226;-74
2022/04/20 13:14:19;;;;;;;2.40;1.50;;;35.60;28.50;;;;;;2142103;66;20338;-76
2022/04/20 13:17:02;;;;;;;1.60;1.50;;;35.90;28.30;;;;;;2144640;66;20869;-77
2022/04/20 13:19:44;;;;;;;2.95;1.95;;;36.20;28.40;;;;;;2132170;67;20730;-77
2022/04/20 13:22:26;;;;;;;2.90;2.60;;;36.40;28.50;;;;;;1911976;67;15107670;-76
2022/04/20 13:28:10;;;;;;;4.18;2.67;;;36.30;29.00;;;;;;2108603;67;20242;-75
2022/04/20 13:30:52;;;;;;;4.00;2.83;;;36.20;29.60;;;;;;2116022;67;20330;-75
2022/04/20 13:33:38;;;;;;;3.47;2.60;;;36.40;29.60;;;;;;2112096;67;20232;-76
2022/04/20 13:36:25;;;;;;;4.50;2.83;;;36.50;29.60;;;;;;2117233;67;20200;-77
2022/04/20 13:39:29;;;;;;;5.80;3.05;;;36.50;29.10;;;;;;2114683;67;20290;-77
2022/04/20 13:42:13;;;;;;;5.05;3.05;;;36.50;29.20;;;;;;2116159;67;20258;-76
2022/04/20 13:44:54;;;;;;;3.35;2.95;;;36.60;28.90;;;;;;2107660;67;20400;-75
2022/04/20 13:47:41;;;;;;;3.20;3.00;;;36.80;29.00;;;;;;2099842;68;20399;-76
2022/04/20 13:50:26;;;;;;;3.35;2.53;;;36.80;28.70;;;;;;2108345;67;20390;-75
2022/04/20 13:53:10;;;;;;;5.55;3.17;;;36.40;28.80;;;;;;2108158;67;20239;-74
2022/04/20 13:55:52;;;;;;;4.03;3.70;;;36.40;29.20;;;;;;2113436;67;20763;-74
2022/04/20 13:58:36;;;;;;;5.07;3.15;;;36.40;28.90;;;;;;2105502;67;20330;-74
2022/04/20 14:01:21;;;;;;;3.47;3.05;;;36.20;29.10;;;;;;2115746;67;20205;-76
2022/04/20 14:04:04;;;;;;;5.18;3.22;;;36.40;29.50;;;;;;2104817;67;20178;-79
2022/04/20 14:06:47;;;;;;;8.05;3.20;;;36.60;29.20;;;;;;2103593;68;20201;-78
2022/04/20 14:09:30;;;;;;;3.70;3.28;;;36.70;29.10;;;;;;2103490;68;20474;-78
2022/04/20 14:12:15;;;;;;;3.50;3.00;;;36.30;29.10;;;;;;2112037;67;20393;-79
2022/04/20 14:15:04;;;;;;;4.65;3.80;;;36.20;29.20;;;;;;2124512;67;20327;-77
2022/04/20 14:17:48;;;;;;;6.53;4.00;;;36.00;29.00;;;;;;2118983;67;20633;-80
2022/04/20 14:20:32;;;;;;;8.95;3.75;;;36.20;29.00;;;;;;2130553;67;20167;-77
2022/04/20 14:23:16;;;;;;;6.05;3.88;;;36.40;28.90;;;;;;2124575;67;20301;-77
2022/04/20 14:32:19;;;;;;;5.68;4.18;;;36.90;28.90;;;;;;2146713;66;20802;-77
2022/04/20 14:35:16;;;;;;;6.72;4.13;;;37.00;28.70;;;;;;2141702;66;20782;-77
2022/04/20 14:38:02;;;;;;;4.30;3.90;;;36.60;29.10;;;;;;2126077;67;20921;-76
2022/04/20 14:40:46;;;;;;;6.82;4.18;;;36.50;29.10;;;;;;2123277;67;20229;-74
2022/04/20 14:43:28;;;;;;;5.50;3.95;;;36.50;29.20;;;;;;2124089;67;20503;-77
2022/04/20 14:46:11;;;;;;;5.32;4.05;;;36.60;29.10;;;;;;2125573;67;20321;-76
2022/04/20 14:48:54;;;;;;;7.00;4.60;;;36.40;29.10;;;;;;2115220;67;20201;-74
2022/04/20 14:51:36;;;;;;;4.80;4.40;;;36.40;29.10;;;;;;2112908;67;20800;-76
2022/04/20 14:54:18;;;;;;;4.38;3.97;;;35.90;29.10;;;;;;2128677;67;20313;-75
2022/04/20 14:57:00;;;;;;;5.15;4.53;;;35.40;29.30;;;;;;2127696;67;20321;-77
2022/04/20 14:59:42;;;;;;;4.28;3.95;;;35.30;29.60;;;;;;2134600;67;20290;-76
2022/04/20 15:02:29;;;;;;;6.22;4.60;;;35.00;29.80;;;;;;2130054;67;20320;-76
2022/04/20 15:05:14;;;;;;;6.05;4.72;;;34.80;29.70;;;;;;2124421;67;20305;-75
2022/04/20 15:07:55;;;;;;;4.85;4.45;;;34.80;29.90;;;;;;2124543;67;20207;-75
2022/04/20 15:10:38;;;;;;;6.57;4.57;;;34.70;29.80;;;;;;2131246;67;20197;-73
2022/04/20 15:13:21;;;;;;;5.03;4.35;;;34.20;30.00;;;;;;2124019;67;20348;-75